sensor_id;sensor_type;location;lat;lon;timestamp;temperature;humidity
24436;DHT22;12616;52.470;13.436;2023-07-13T00:18:00;20.10;1.00
24436;DHT22;12616;52.470;13.436;2023-07-13T00:23:37;20.30;99.90
24436;DHT22;12616;52.470;13.436;2023-07-13T00:26:16;20.30;99.90
24436;DHT22;12616;52.470;13.436;2023-07-13T00:31:36;20.40;99.90
24436;DHT22;12616;52.470;13.436;2023-07-13T01:59:27;19.30;99.90
24436;DHT22;12616;52.470;13.436;2023-07-13T02:35:22;19.00;1.00
24436;DHT22;12616;52.470;13.436;2023-07-13T02:45:22;19.00;1.00
24436;DHT22;12616;52.470;13.436;2023-07-13T02:48:25;18.90;1.00
24436;DHT22;12616;52.470;13.436;2023-07-13T02:51:49;18.90;1.00
24436;DHT22;12616;52.470;13.436;2023-07-13T05:27:02;19.70;1.00
24436;DHT22;12616;52.470;13.436;2023-07-13T05:37:26;20.10;1.00
24436;DHT22;12616;52.470;13.436;2023-07-13T06:57:30;21.40;99.90
24436;DHT22;12616;52.470;13.436;2023-07-13T07:08:36;21.60;99.90
24436;DHT22;12616;52.470;13.436;2023-07-13T07:11:03;21.60;99.90
24436;DHT22;12616;52.470;13.436;2023-07-13T07:13:32;21.60;99.90
24436;DHT22;12616;52.470;13.436;2023-07-13T07:15:59;21.90;1.00
24436;DHT22;12616;52.470;13.436;2023-07-13T07:18:26;19.90;99.90
24436;DHT22;12616;52.470;13.436;2023-07-13T07:23:27;21.90;99.90
24436;DHT22;12616;52.470;13.436;2023-07-13T07:54:36;22.90;99.90
24436;DHT22;12616;52.470;13.436;2023-07-13T07:59:34;22.80;1.00
24436;DHT22;12616;52.470;13.436;2023-07-13T08:07:15;22.80;99.90
24436;DHT22;12616;52.470;13.436;2023-07-13T08:09:44;23.30;99.90
24436;DHT22;12616;52.470;13.436;2023-07-13T08:12:15;22.70;99.90
24436;DHT22;12616;52.470;13.436;2023-07-13T08:17:21;22.70;99.90
24436;DHT22;12616;52.470;13.436;2023-07-13T08:20:08;22.70;99.90
24436;DHT22;12616;52.470;13.436;2023-07-13T08:22:40;22.80;99.90
24436;DHT22;12616;52.470;13.436;2023-07-13T08:25:09;22.70;99.90
24436;DHT22;12616;52.470;13.436;2023-07-13T08:33:52;22.80;1.00
24436;DHT22;12616;52.470;13.436;2023-07-13T08:39:11;22.80;99.90
24436;DHT22;12616;52.470;13.436;2023-07-13T08:42:12;22.80;99.90
24436;DHT22;12616;52.470;13.436;2023-07-13T08:44:49;22.80;99.90
24436;DHT22;12616;52.470;13.436;2023-07-13T08:52:32;22.80;99.90
24436;DHT22;12616;52.470;13.436;2023-07-13T08:55:05;22.80;99.90
24436;DHT22;12616;52.470;13.436;2023-07-13T08:57:40;22.80;99.90
24436;DHT22;12616;52.470;13.436;2023-07-13T09:00:12;22.60;1.00
24436;DHT22;12616;52.470;13.436;2023-07-13T09:02:59;22.90;99.90
24436;DHT22;12616;52.470;13.436;2023-07-13T09:05:38;22.90;99.90
24436;DHT22;12616;52.470;13.436;2023-07-13T09:08:31;23.10;99.90
24436;DHT22;12616;52.470;13.436;2023-07-13T09:14:33;23.50;99.90
24436;DHT22;12616;52.470;13.436;2023-07-13T09:17:17;23.60;99.90
24436;DHT22;12616;52.470;13.436;2023-07-13T09:19:57;23.50;99.90
24436;DHT22;12616;52.470;13.436;2023-07-13T09:22:37;23.40;99.90
24436;DHT22;12616;52.470;13.436;2023-07-13T09:25:11;23.40;99.90
24436;DHT22;12616;52.470;13.436;2023-07-13T09:27:46;23.50;99.90
24436;DHT22;12616;52.470;13.436;2023-07-13T09:30:36;23.80;1.00
24436;DHT22;12616;52.470;13.436;2023-07-13T09:33:09;23.50;99.90
24436;DHT22;12616;52.470;13.436;2023-07-13T09:38:11;23.60;99.90
24436;DHT22;12616;52.470;13.436;2023-07-13T09:41:03;23.60;99.90
24436;DHT22;12616;52.470;13.436;2023-07-13T09:46:24;23.40;99.90
24436;DHT22;12616;52.470;13.436;2023-07-13T09:48:59;23.30;99.90
24436;DHT22;12616;52.470;13.436;2023-07-13T09:53:54;23.00;1.00
24436;DHT22;12616;52.470;13.436;2023-07-13T09:56:27;23.30;99.90
24436;DHT22;12616;52.470;13.436;2023-07-13T09:59:22;23.60;99.90
24436;DHT22;12616;52.470;13.436;2023-07-13T10:01:53;23.70;99.90
24436;DHT22;12616;52.470;13.436;2023-07-13T10:04:30;23.80;99.90
24436;DHT22;12616;52.470;13.436;2023-07-13T10:07:11;23.70;1.00
24436;DHT22;12616;52.470;13.436;2023-07-13T10:09:43;23.80;99.90
24436;DHT22;12616;52.470;13.436;2023-07-13T10:12:16;23.80;99.90
24436;DHT22;12616;52.470;13.436;2023-07-13T10:17:18;24.10;99.90
24436;DHT22;12616;52.470;13.436;2023-07-13T10:19:51;24.20;99.90
24436;DHT22;12616;52.470;13.436;2023-07-13T10:22:29;24.20;99.90
24436;DHT22;12616;52.470;13.436;2023-07-13T10:27:33;24.40;99.90
24436;DHT22;12616;52.470;13.436;2023-07-13T10:30:09;24.60;1.00
24436;DHT22;12616;52.470;13.436;2023-07-13T10:35:12;24.70;99.90
24436;DHT22;12616;52.470;13.436;2023-07-13T10:37:47;24.50;99.90
24436;DHT22;12616;52.470;13.436;2023-07-13T10:40:28;24.40;99.90
24436;DHT22;12616;52.470;13.436;2023-07-13T10:43:16;24.40;99.90
24436;DHT22;12616;52.470;13.436;2023-07-13T10:45:51;24.20;1.00
24436;DHT22;12616;52.470;13.436;2023-07-13T10:48:34;24.00;99.90
24436;DHT22;12616;52.470;13.436;2023-07-13T10:51:08;24.40;99.90
24436;DHT22;12616;52.470;13.436;2023-07-13T10:53:40;24.40;99.90
24436;DHT22;12616;52.470;13.436;2023-07-13T10:56:22;24.30;99.90
24436;DHT22;12616;52.470;13.436;2023-07-13T10:59:16;24.40;99.90
24436;DHT22;12616;52.470;13.436;2023-07-13T11:01:55;24.60;99.90
24436;DHT22;12616;52.470;13.436;2023-07-13T11:04:58;24.60;99.90
24436;DHT22;12616;52.470;13.436;2023-07-13T11:07:31;24.70;99.90
24436;DHT22;12616;52.470;13.436;2023-07-13T11:10:52;24.80;99.90
24436;DHT22;12616;52.470;13.436;2023-07-13T11:14:25;25.00;99.90
24436;DHT22;12616;52.470;13.436;2023-07-13T11:19:41;25.00;99.90
24436;DHT22;12616;52.470;13.436;2023-07-13T11:22:25;25.10;99.90
24436;DHT22;12616;52.470;13.436;2023-07-13T11:25:25;24.80;1.00
24436;DHT22;12616;52.470;13.436;2023-07-13T11:28:16;25.20;1.00
24436;DHT22;12616;52.470;13.436;2023-07-13T11:31:11;25.20;99.90
24436;DHT22;12616;52.470;13.436;2023-07-13T11:34:00;25.20;99.90
24436;DHT22;12616;52.470;13.436;2023-07-13T11:36:43;25.20;99.90
24436;DHT22;12616;52.470;13.436;2023-07-13T11:39:50;25.20;99.90
24436;DHT22;12616;52.470;13.436;2023-07-13T11:45:27;25.30;99.90
24436;DHT22;12616;52.470;13.436;2023-07-13T11:48:26;25.50;99.90
24436;DHT22;12616;52.470;13.436;2023-07-13T11:51:18;25.30;99.90
24436;DHT22;12616;52.470;13.436;2023-07-13T11:57:23;25.00;99.90
24436;DHT22;12616;52.470;13.436;2023-07-13T12:00:03;25.00;99.90
24436;DHT22;12616;52.470;13.436;2023-07-13T12:02:42;25.00;99.90
24436;DHT22;12616;52.470;13.436;2023-07-13T12:05:13;25.10;99.90
24436;DHT22;12616;52.470;13.436;2023-07-13T12:10:23;25.20;99.90
24436;DHT22;12616;52.470;13.436;2023-07-13T12:13:01;25.20;99.90
24436;DHT22;12616;52.470;13.436;2023-07-13T12:15:37;25.30;99.90
24436;DHT22;12616;52.470;13.436;2023-07-13T12:18:15;25.30;99.90
24436;DHT22;12616;52.470;13.436;2023-07-13T12:20:50;25.40;99.90
24436;DHT22;12616;52.470;13.436;2023-07-13T12:23:35;25.40;99.90
24436;DHT22;12616;52.470;13.436;2023-07-13T12:26:07;25.50;99.90
24436;DHT22;12616;52.470;13.436;2023-07-13T12:28:51;25.40;99.90
24436;DHT22;12616;52.470;13.436;2023-07-13T12:31:43;25.40;99.90
24436;DHT22;12616;52.470;13.436;2023-07-13T12:34:18;25.40;99.90
24436;DHT22;12616;52.470;13.436;2023-07-13T12:36:54;25.50;99.90
24436;DHT22;12616;52.470;13.436;2023-07-13T12:39:32;25.50;99.90
24436;DHT22;12616;52.470;13.436;2023-07-13T12:42:18;25.50;99.90
24436;DHT22;12616;52.470;13.436;2023-07-13T12:45:05;25.50;99.90
24436;DHT22;12616;52.470;13.436;2023-07-13T12:47:42;25.70;99.90
24436;DHT22;12616;52.470;13.436;2023-07-13T12:50:20;25.80;99.90
24436;DHT22;12616;52.470;13.436;2023-07-13T12:52:55;25.70;99.90
24436;DHT22;12616;52.470;13.436;2023-07-13T12:57:54;25.60;99.90
24436;DHT22;12616;52.470;13.436;2023-07-13T13:00:29;25.70;99.90
24436;DHT22;12616;52.470;13.436;2023-07-13T13:03:19;25.60;99.90
24436;DHT22;12616;52.470;13.436;2023-07-13T13:15:43;25.60;99.90
24436;DHT22;12616;52.470;13.436;2023-07-13T13:18:22;24.90;1.00
24436;DHT22;12616;52.470;13.436;2023-07-13T13:23:20;25.30;99.90
24436;DHT22;12616;52.470;13.436;2023-07-13T13:25:50;25.40;99.90
24436;DHT22;12616;52.470;13.436;2023-07-13T13:28:23;25.50;99.90
24436;DHT22;12616;52.470;13.436;2023-07-13T13:30:51;26.70;99.90
24436;DHT22;12616;52.470;13.436;2023-07-13T13:33:21;25.60;99.90
24436;DHT22;12616;52.470;13.436;2023-07-13T13:38:21;25.70;99.90
24436;DHT22;12616;52.470;13.436;2023-07-13T13:43:36;25.70;99.90
24436;DHT22;12616;52.470;13.436;2023-07-13T13:46:13;25.80;99.90
24436;DHT22;12616;52.470;13.436;2023-07-13T13:48:44;25.80;99.90
24436;DHT22;12616;52.470;13.436;2023-07-13T13:51:17;25.90;99.90
24436;DHT22;12616;52.470;13.436;2023-07-13T14:24:14;25.60;99.90
24436;DHT22;12616;52.470;13.436;2023-07-13T14:24:59;25.70;99.90
24436;DHT22;12616;52.470;13.436;2023-07-13T14:27:45;25.80;99.90
24436;DHT22;12616;52.470;13.436;2023-07-13T14:30:13;25.80;1.00
24436;DHT22;12616;52.470;13.436;2023-07-13T14:35:20;25.80;99.90
24436;DHT22;12616;52.470;13.436;2023-07-13T14:40:24;25.60;99.90
24436;DHT22;12616;52.470;13.436;2023-07-13T14:45:20;25.50;99.90
24436;DHT22;12616;52.470;13.436;2023-07-13T14:50:20;24.10;99.90
24436;DHT22;12616;52.470;13.436;2023-07-13T14:52:48;25.60;99.90
24436;DHT22;12616;52.470;13.436;2023-07-13T14:55:18;25.70;99.90
24436;DHT22;12616;52.470;13.436;2023-07-13T15:00:14;27.90;99.90
24436;DHT22;12616;52.470;13.436;2023-07-13T15:02:43;25.80;1.00
24436;DHT22;12616;52.470;13.436;2023-07-13T15:05:15;26.20;1.00
24436;DHT22;12616;52.470;13.436;2023-07-13T15:07:43;26.00;1.00
24436;DHT22;12616;52.470;13.436;2023-07-13T15:10:15;25.60;99.90
24436;DHT22;12616;52.470;13.436;2023-07-13T15:12:43;25.60;99.90
24436;DHT22;12616;52.470;13.436;2023-07-13T15:15:10;25.60;99.90
24436;DHT22;12616;52.470;13.436;2023-07-13T15:17:39;25.60;99.90
24436;DHT22;12616;52.470;13.436;2023-07-13T15:20:19;25.60;99.90
24436;DHT22;12616;52.470;13.436;2023-07-13T15:25:16;25.80;99.90
24436;DHT22;12616;52.470;13.436;2023-07-13T15:30:15;26.10;1.00
24436;DHT22;12616;52.470;13.436;2023-07-13T15:35:15;25.80;99.90
24436;DHT22;12616;52.470;13.436;2023-07-13T15:40:11;25.90;1.00
24436;DHT22;12616;52.470;13.436;2023-07-13T15:42:39;25.70;99.90
24436;DHT22;12616;52.470;13.436;2023-07-13T15:45:24;25.70;99.90
24436;DHT22;12616;52.470;13.436;2023-07-13T15:50:21;25.70;99.90
24436;DHT22;12616;52.470;13.436;2023-07-13T15:52:51;25.70;99.90
24436;DHT22;12616;52.470;13.436;2023-07-13T15:57:47;25.60;99.90
24436;DHT22;12616;52.470;13.436;2023-07-13T16:00:20;25.60;99.90
24436;DHT22;12616;52.470;13.436;2023-07-13T16:07:48;25.70;99.90
24436;DHT22;12616;52.470;13.436;2023-07-13T16:15:16;25.80;99.90
24436;DHT22;12616;52.470;13.436;2023-07-13T16:20:13;25.80;99.90
24436;DHT22;12616;52.470;13.436;2023-07-13T16:22:44;25.50;1.00
24436;DHT22;12616;52.470;13.436;2023-07-13T16:25:25;25.70;99.90
24436;DHT22;12616;52.470;13.436;2023-07-13T16:27:57;25.70;99.90
24436;DHT22;12616;52.470;13.436;2023-07-13T16:30:27;25.70;99.90
24436;DHT22;12616;52.470;13.436;2023-07-13T16:35:24;25.70;99.90
24436;DHT22;12616;52.470;13.436;2023-07-13T16:40:25;25.60;99.90
24436;DHT22;12616;52.470;13.436;2023-07-13T16:42:54;25.60;99.90
24436;DHT22;12616;52.470;13.436;2023-07-13T16:45:25;25.50;99.90
24436;DHT22;12616;52.470;13.436;2023-07-13T16:47:53;25.30;99.90
24436;DHT22;12616;52.470;13.436;2023-07-13T16:50:22;25.10;99.90
24436;DHT22;12616;52.470;13.436;2023-07-13T16:52:50;24.90;99.90
24436;DHT22;12616;52.470;13.436;2023-07-13T16:55:19;24.80;99.90
24436;DHT22;12616;52.470;13.436;2023-07-13T16:57:56;26.00;99.90
24436;DHT22;12616;52.470;13.436;2023-07-13T17:00:28;24.30;99.90
24436;DHT22;12616;52.470;13.436;2023-07-13T17:02:56;24.50;99.90
24436;DHT22;12616;52.470;13.436;2023-07-13T17:10:23;24.60;99.90
24436;DHT22;12616;52.470;13.436;2023-07-13T17:12:50;24.60;99.90
24436;DHT22;12616;52.470;13.436;2023-07-13T17:15:20;24.50;99.90
24436;DHT22;12616;52.470;13.436;2023-07-13T17:17:48;23.60;99.90
24436;DHT22;12616;52.470;13.436;2023-07-13T17:20:20;23.60;99.90
24436;DHT22;12616;52.470;13.436;2023-07-13T17:25:19;21.90;99.90
24436;DHT22;12616;52.470;13.436;2023-07-13T17:32:44;21.00;99.90
24436;DHT22;12616;52.470;13.436;2023-07-13T17:35:20;20.90;99.90
24436;DHT22;12616;52.470;13.436;2023-07-13T17:40:17;20.60;99.90
24436;DHT22;12616;52.470;13.436;2023-07-13T17:45:12;20.30;99.90
24436;DHT22;12616;52.470;13.436;2023-07-13T17:47:47;19.90;1.00
24436;DHT22;12616;52.470;13.436;2023-07-13T17:50:16;20.10;99.90
24436;DHT22;12616;52.470;13.436;2023-07-13T17:52:48;20.10;99.90
24436;DHT22;12616;52.470;13.436;2023-07-13T17:55:16;19.20;99.90
24436;DHT22;12616;52.470;13.436;2023-07-13T17:57:45;20.00;99.90
24436;DHT22;12616;52.470;13.436;2023-07-13T18:00:16;20.00;99.90
24436;DHT22;12616;52.470;13.436;2023-07-13T18:03:03;20.00;99.90
24436;DHT22;12616;52.470;13.436;2023-07-13T18:08:01;20.30;1.00
24436;DHT22;12616;52.470;13.436;2023-07-13T18:10:30;20.20;1.00
24436;DHT22;12616;52.470;13.436;2023-07-13T18:12:58;20.00;99.90
24436;DHT22;12616;52.470;13.436;2023-07-13T18:15:29;20.10;99.90
24436;DHT22;12616;52.470;13.436;2023-07-13T18:18:04;20.10;99.90
24436;DHT22;12616;52.470;13.436;2023-07-13T18:25:37;20.10;99.90
24436;DHT22;12616;52.470;13.436;2023-07-13T18:28:16;20.20;99.90
24436;DHT22;12616;52.470;13.436;2023-07-13T18:31:02;20.30;99.90
24436;DHT22;12616;52.470;13.436;2023-07-13T18:33:53;20.20;99.90
24436;DHT22;12616;52.470;13.436;2023-07-13T18:36:32;20.40;99.90
24436;DHT22;12616;52.470;13.436;2023-07-13T18:39:15;20.40;99.90
24436;DHT22;12616;52.470;13.436;2023-07-13T18:49:59;20.20;99.90
24436;DHT22;12616;52.470;13.436;2023-07-13T18:54:57;20.20;99.90
24436;DHT22;12616;52.470;13.436;2023-07-13T18:57:29;19.90;1.00
24436;DHT22;12616;52.470;13.436;2023-07-13T19:00:05;20.00;99.90
24436;DHT22;12616;52.470;13.436;2023-07-13T19:02:38;20.10;99.90
24436;DHT22;12616;52.470;13.436;2023-07-13T19:05:23;20.10;99.90
24436;DHT22;12616;52.470;13.436;2023-07-13T19:10:20;19.90;99.90
24436;DHT22;12616;52.470;13.436;2023-07-13T19:12:55;20.00;99.90
24436;DHT22;12616;52.470;13.436;2023-07-13T19:15:31;20.00;99.90
24436;DHT22;12616;52.470;13.436;2023-07-13T19:18:09;20.00;99.90
24436;DHT22;12616;52.470;13.436;2023-07-13T19:20:40;20.00;99.90
24436;DHT22;12616;52.470;13.436;2023-07-13T19:23:28;20.00;1.00
24436;DHT22;12616;52.470;13.436;2023-07-13T19:26:01;20.10;99.90
24436;DHT22;12616;52.470;13.436;2023-07-13T19:28:34;20.00;99.90
24436;DHT22;12616;52.470;13.436;2023-07-13T19:36:00;19.90;99.90
24436;DHT22;12616;52.470;13.436;2023-07-13T19:48:21;19.70;99.90
24436;DHT22;12616;52.470;13.436;2023-07-13T19:53:18;19.30;99.90
24436;DHT22;12616;52.470;13.436;2023-07-13T20:08:13;19.60;99.90
24436;DHT22;12616;52.470;13.436;2023-07-13T20:10:47;19.60;99.90
24436;DHT22;12616;52.470;13.436;2023-07-13T20:18:15;19.50;99.90
24436;DHT22;12616;52.470;13.436;2023-07-13T20:20:45;19.50;99.90
24436;DHT22;12616;52.470;13.436;2023-07-13T20:23:16;19.20;1.00
24436;DHT22;12616;52.470;13.436;2023-07-13T20:25:46;19.60;99.90
24436;DHT22;12616;52.470;13.436;2023-07-13T21:10:35;19.30;99.90
24436;DHT22;12616;52.470;13.436;2023-07-13T21:16:12;19.30;99.90
24436;DHT22;12616;52.470;13.436;2023-07-13T21:21:09;19.20;99.90
24436;DHT22;12616;52.470;13.436;2023-07-13T21:23:37;19.10;1.00
24436;DHT22;12616;52.470;13.436;2023-07-13T21:26:07;19.20;99.90
24436;DHT22;12616;52.470;13.436;2023-07-13T21:28:37;19.20;99.90
24436;DHT22;12616;52.470;13.436;2023-07-13T21:31:07;19.10;99.90
24436;DHT22;12616;52.470;13.436;2023-07-13T21:36:06;18.90;99.90
24436;DHT22;12616;52.470;13.436;2023-07-13T21:38:35;20.40;99.90
24436;DHT22;12616;52.470;13.436;2023-07-13T21:41:04;18.30;33.10
24436;DHT22;12616;52.470;13.436;2023-07-13T21:43:34;19.00;99.90
24436;DHT22;12616;52.470;13.436;2023-07-13T21:46:04;18.90;99.90
24436;DHT22;12616;52.470;13.436;2023-07-13T21:53:28;19.00;99.90
24436;DHT22;12616;52.470;13.436;2023-07-13T21:55:59;18.90;99.90
24436;DHT22;12616;52.470;13.436;2023-07-13T21:58:29;18.90;99.90
24436;DHT22;12616;52.470;13.436;2023-07-13T22:00:58;18.90;99.90
24436;DHT22;12616;52.470;13.436;2023-07-13T22:03:27;18.90;99.90
24436;DHT22;12616;52.470;13.436;2023-07-13T22:08:30;18.80;99.90
24436;DHT22;12616;52.470;13.436;2023-07-13T22:13:28;18.80;48.10
24436;DHT22;12616;52.470;13.436;2023-07-13T22:18:24;18.70;99.90
24436;DHT22;12616;52.470;13.436;2023-07-13T22:20:52;18.70;99.90
24436;DHT22;12616;52.470;13.436;2023-07-13T22:23:21;18.80;99.90
24436;DHT22;12616;52.470;13.436;2023-07-13T22:25:50;19.00;80.70
24436;DHT22;12616;52.470;13.436;2023-07-13T22:28:19;18.80;1.00
24436;DHT22;12616;52.470;13.436;2023-07-13T22:30:49;18.70;1.00
24436;DHT22;12616;52.470;13.436;2023-07-13T22:33:18;18.80;50.50
24436;DHT22;12616;52.470;13.436;2023-07-13T22:35:47;19.80;1.00
24436;DHT22;12616;52.470;13.436;2023-07-13T22:38:17;18.60;1.00
24436;DHT22;12616;52.470;13.436;2023-07-13T22:40:45;18.60;1.00
24436;DHT22;12616;52.470;13.436;2023-07-13T22:43:19;18.80;99.90
24436;DHT22;12616;52.470;13.436;2023-07-13T22:45:49;18.80;1.00
24436;DHT22;12616;52.470;13.436;2023-07-13T22:48:19;18.80;1.00
24436;DHT22;12616;52.470;13.436;2023-07-13T22:50:49;18.70;1.00
24436;DHT22;12616;52.470;13.436;2023-07-13T22:53:20;18.70;1.00
24436;DHT22;12616;52.470;13.436;2023-07-13T23:03:14;18.70;1.00
24436;DHT22;12616;52.470;13.436;2023-07-13T23:05:42;18.60;1.00
24436;DHT22;12616;52.470;13.436;2023-07-13T23:08:12;18.70;1.00
24436;DHT22;12616;52.470;13.436;2023-07-13T23:10:40;18.40;99.90
24436;DHT22;12616;52.470;13.436;2023-07-13T23:15:34;18.70;1.00
24436;DHT22;12616;52.470;13.436;2023-07-13T23:18:02;18.60;99.90
24436;DHT22;12616;52.470;13.436;2023-07-13T23:20:31;18.70;1.00
24436;DHT22;12616;52.470;13.436;2023-07-13T23:22:59;18.70;1.00
24436;DHT22;12616;52.470;13.436;2023-07-13T23:25:30;18.50;1.00
24436;DHT22;12616;52.470;13.436;2023-07-13T23:27:59;18.50;99.90
24436;DHT22;12616;52.470;13.436;2023-07-13T23:30:28;18.50;1.00
24436;DHT22;12616;52.470;13.436;2023-07-13T23:32:59;18.40;1.00
24436;DHT22;12616;52.470;13.436;2023-07-13T23:35:27;18.40;1.00
24436;DHT22;12616;52.470;13.436;2023-07-13T23:37:54;18.40;1.00
24436;DHT22;12616;52.470;13.436;2023-07-13T23:40:23;18.30;1.00
24436;DHT22;12616;52.470;13.436;2023-07-13T23:42:52;18.30;1.00
24436;DHT22;12616;52.470;13.436;2023-07-13T23:45:20;18.30;1.00
24436;DHT22;12616;52.470;13.436;2023-07-13T23:47:49;18.20;1.00
24436;DHT22;12616;52.470;13.436;2023-07-13T23:50:19;18.20;1.00
24436;DHT22;12616;52.470;13.436;2023-07-13T23:57:42;18.20;1.00
